• Join FlightAware (Why Join?)
  • Login
  • US Flag 
11:48PM EDT


 

Airport Tracker/Info


-or-


 

Live Flight TrackerFlight Track Log ✈ N400PU ✈ 04-Apr-2013 ✈ KLAF - KLNK

Flight Track Log - Related Links

Times and Time Zones

All times are in EDT time to prevent confusion due to time zone crossing. See the N400PU flight status page for this flight to view local times or setup timezone preferences in your user account.

Time Position Orientation Groundspeed Altitude Reporting Facility
EDT Latitude Longitude Course Direction KTS MPH feet Rate Location/Type
11:20AM 40.4139 -86.9664 323° Northwest 149 171 1,500  Level Chicago Center
11:21AM 40.4642 -87.0161 323° Northwest 206 237 5,000 2,760 Climbing Chicago Center
11:22AM 40.4881 -87.0342 330° Northwest 226 260 6,100 2,340 Climbing Chicago Center
11:23AM 40.5350 -87.1019 312° West 256 295 8,700 2,820 Climbing Chicago Center
11:24AM 40.5361 -87.1986 271° West 263 303 11,900 3,060 Climbing Chicago Center
11:25AM 40.5397 -87.3150 272° West 265 305 15,100 2,820 Climbing Chicago Center
11:26AM 40.5433 -87.4142 273° West 271 312 17,700 2,460 Climbing Chicago Center
11:27AM 40.5481 -87.5181 273° West 283 326 20,200 1,980 Climbing Chicago Center
11:28AM 40.5517 -87.6214 273° West 285 328 21,800 840 Climbing Chicago Center
11:29AM 40.5558 -87.7464 273° West 340 391 22,000 660 Climbing Chicago Center
11:30AM 40.5600 -87.8836 272° West 373 429 23,200 1,560 Climbing Chicago Center
11:31AM 40.5650 -88.0172 273° West 368 423 25,300 1,800 Climbing Chicago Center
11:32AM 40.5694 -88.1486 273° West 360 414 27,000 1,740 Climbing Chicago Center
11:33AM 40.5736 -88.3047 272° West 357 411 29,000 1,620 Climbing Chicago Center
11:34AM 40.5772 -88.4344 272° West 356 410 30,400 1,320 Climbing Chicago Center
11:35AM 40.5808 -88.5647 272° West 356 410 31,800 1,200 Climbing Chicago Center
11:36AM 40.5839 -88.6950 272° West 358 412 33,000 1,080 Climbing Chicago Center
11:37AM 40.5883 -88.8269 273° West 361 415 34,100 1,200 Climbing Chicago Center
11:38AM 40.5911 -88.9753 271° West 357 411 35,500 1,200 Climbing Chicago Center
11:39AM 40.5942 -89.1028 272° West 352 405 36,700 1,080 Climbing Chicago Center
11:40AM 40.5958 -89.2264 271° West 342 394 37,800 600 Climbing Chicago Center
11:41AM 40.5989 -89.3492 272° West 338 389 38,000 60 Climbing Chicago Center
11:42AM 40.6006 -89.4781 271° West 351 404 38,000  Level Chicago Center
11:43AM 40.6028 -89.6172 271° West 365 420 38,000  Level Chicago Center
11:44AM 40.6056 -89.7553 272° West 377 434 38,000  Level Chicago Center
11:45AM 40.6103 -89.8953 273° West 382 440 38,000  Level Chicago Center
11:46AM 40.6114 -90.0619 271° West 381 438 38,000  Level Chicago Center
11:47AM 40.6131 -90.1997 271° West 377 434 38,000  Level Chicago Center
11:48AM 40.6147 -90.3167 271° West 373 429 38,000  Level Chicago Center
11:49AM 40.6156 -90.4272 271° West 375 432 38,000  Level Chicago Center
11:50AM 40.6172 -90.5667 271° West 378 435 38,000  Level Chicago Center
11:51AM 40.6175 -90.7086 270° West 387 445 38,000  Level Chicago Center
11:52AM 40.6183 -90.8478 270° West 383 441 38,000  Level Chicago Center
11:53AM 40.6192 -90.9864 270° West 380 437 38,000  Level Chicago Center
11:54AM 40.6189 -91.1281 270° West 386 444 38,000  Level Chicago Center
11:55AM 40.6197 -91.2706 270° West 389 448 38,000  Level Chicago Center
11:56AM 40.6206 -91.4350 270° West 389 448 38,000  Level Chicago Center
11:57AM 40.6208 -91.5769 270° West 392 451 38,000  Level Chicago Center
11:58AM 40.6217 -91.7192 270° West 392 451 38,000  Level Chicago Center
11:58AM 40.6194 -91.7472 264° West 392 451 38,000  Level Kansas City Center
11:59AM 40.6189 -91.9194 270° West 395 455 38,000  Level Kansas City Center
12:00PM 40.6192 -92.0636 270° West 398 458 38,000  Level Kansas City Center
12:02PM 40.6183 -92.2083 270° West 400 460 38,000  Level Kansas City Center
12:03PM 40.6178 -92.3536 270° West 402 463 38,000  Level Kansas City Center
12:04PM 40.6158 -92.4983 269° West 402 463 38,000  Level Kansas City Center
12:05PM 40.6153 -92.6731 270° West 405 466 38,000  Level Kansas City Center
12:06PM 40.6128 -92.8183 269° West 405 466 38,000  Level Kansas City Center
12:07PM 40.6119 -92.9642 270° West 405 466 38,000  Level Kansas City Center
12:08PM 40.6111 -93.1394 270° West 405 466 38,000  Level Kansas City Center
12:09PM 40.6081 -93.3164 269° West 406 467 38,000  Level Kansas City Center
12:10PM 40.6056 -93.4650 269° West 410 472 38,000  Level Kansas City Center
12:11PM 40.6042 -93.6142 269° West 411 473 38,000  Level Kansas City Center
12:11PM 40.6036 -93.6433 269° West 410 472 38,000 -1,560 Level Minneapolis Center
12:12PM 40.5983 -93.8211 268° West 409 471 36,000 -1,020 Descending Minneapolis Center
12:13PM 40.5956 -93.9622 269° West 397 457 36,000 -420 Level Minneapolis Center
12:15PM 40.6083 -94.1064 277° West 400 460 35,100 -1,020 Descending Minneapolis Center
12:16PM 40.6275 -94.2803 278° West 403 464 33,700 -1,500 Descending Minneapolis Center
12:17PM 40.6403 -94.4244 277° West 400 460 32,000 -1,860 Descending Minneapolis Center
12:18PM 40.6575 -94.5847 278° West 403 464 30,000 -1,980 Descending Minneapolis Center
12:19PM 40.6719 -94.7325 277° West 405 466 28,000 -1,920 Descending Minneapolis Center
12:20PM 40.6869 -94.8808 278° West 406 467 26,100 -1,920 Descending Minneapolis Center
12:21PM 40.7014 -95.0319 277° West 413 475 24,100 -1,980 Descending Minneapolis Center
12:22PM 40.7153 -95.1828 277° West 414 476 22,100 -2,220 Descending Minneapolis Center
12:22PM 40.7319 -95.2578 286° West 406 467 20,900 -2,400 Descending Minneapolis Center
12:23PM 40.7375 -95.3342 276° West 394 453 19,900 -1,980 Descending Minneapolis Center
12:24PM 40.7442 -95.4947 273° West 386 444 17,700 -1,800 Descending Minneapolis Center
12:25PM 40.7594 -95.6178 279° West 371 427 16,100 -900 Descending Minneapolis Center
12:26PM 40.7703 -95.7431 277° West 373 429 16,000 -60 Descending Minneapolis Center
12:27PM 40.7800 -95.9047 275° West 375 432 16,000 -660 Level Minneapolis Center
12:28PM 40.7886 -96.0189 276° West 371 427 14,700 -1,860 Descending Minneapolis Center
12:29PM 40.7967 -96.1750 274° West 362 417 12,400 -2,040 Descending Minneapolis Center
12:30PM 40.7956 -96.2908 269° West 311 358 10,400 -1,860 Descending Minneapolis Center
12:31PM 40.7956 -96.3897 270° West 259 298 8,700 -1,920 Descending Minneapolis Center
12:32PM 40.7956 -96.4889 270° West 252 290 6,500 -2,100 Descending Minneapolis Center
12:33PM 40.7964 -96.5714 271° West 243 280 4,700 -1,620 Descending Minneapolis Center
12:34PM 40.7903 -96.6803 266° West 245 282 3,000 -1,200 Descending Minneapolis Center
12:35PM 40.7719 -96.7253 242° Southwest 170 196 2,300 -900 Descending Minneapolis Center
12:35PM 40.7836 -96.7444 309° West 211 243 2,100 -480 Descending Minneapolis Center
12:36PM 40.8133 -96.7675 330° Northwest 183 211 1,700 -420 Descending Minneapolis Center
12:38PM 40.8500 -96.7500 294° West  Level FlightAware Approximate